Time;durP1;ratioP1;P1;durP2;ratioP2;P2;SDS_P1;SDS_P2;PMS_P1;PMS_P2;Temp;Humidity;BMP_temperature;BMP_pressure;BME280_temperature;BME280_humidity;BME280_pressure;Samples;Min_cycle;Max_cycle;Signal;HPM_P1;HPM_P2
2021/11/07 00:00:35;;;;;;;11.33;7.33;;;;;;;;;;5040714;28;20440;-83
2021/11/07 00:03:08;;;;;;;12.10;7.73;;;;;;;;;;5040863;28;20568;-82
2021/11/07 00:05:39;;;;;;;12.03;7.40;;;;;;;;;;5041282;28;20858;-83
2021/11/07 00:08:23;;;;;;;14.90;7.90;;;;;;;;;;5040725;28;20470;-82
2021/11/07 00:10:53;;;;;;;11.07;7.13;;;;;;;;;;5040428;28;20501;-82
2021/11/07 00:13:23;;;;;;;7.90;6.70;;;;;;;;;;5038672;28;20208;-81
2021/11/07 00:15:50;;;;;;;7.40;6.70;;;;;;;;;;5038425;28;20439;-83
2021/11/07 00:18:21;;;;;;;9.90;6.50;;;;;;;;;;5042355;28;20421;-82
2021/11/07 00:20:53;;;;;;;10.23;6.57;;;;;;;;;;5040822;28;20435;-83
2021/11/07 00:26:07;;;;;;;8.00;6.77;;;;;;;;;;5039252;28;20434;-83
2021/11/07 00:28:40;;;;;;;10.27;7.00;;;;;;;;;;5051842;28;20473;-83
2021/11/07 00:31:17;;;;;;;12.47;7.57;;;;;;;;;;5052107;28;20643;-82
2021/11/07 00:34:06;;;;;;;13.20;7.77;;;;;;;;;;5053723;28;20426;-82
2021/11/07 00:36:34;;;;;;;8.87;7.97;;;;;;;;;;5042342;28;20712;-82
2021/11/07 00:39:10;;;;;;;11.37;6.87;;;;;;;;;;5040727;28;20435;-82
2021/11/07 00:41:47;;;;;;;9.53;7.30;;;;;;;;;;5044569;28;20435;-83
2021/11/07 00:44:18;;;;;;;14.80;8.10;;;;;;;;;;5041659;28;20430;-83
2021/11/07 00:46:48;;;;;;;12.37;9.27;;;;;;;;;;5042650;28;20454;-82
2021/11/07 00:49:21;;;;;;;10.40;7.80;;;;;;;;;;5041004;28;20457;-81
2021/11/07 00:52:02;;;;;;;12.90;8.63;;;;;;;;;;5042229;28;20470;-82
2021/11/07 00:54:38;;;;;;;11.30;8.67;;;;;;;;;;5042961;28;20446;-83
2021/11/07 00:57:17;;;;;;;10.67;8.07;;;;;;;;;;5041662;28;20477;-82
2021/11/07 00:59:51;;;;;;;11.03;7.97;;;;;;;;;;5054136;28;20430;-81
2021/11/07 01:02:20;;;;;;;14.00;8.80;;;;;;;;;;5058313;28;20423;-81
2021/11/07 01:04:49;;;;;;;14.02;8.77;;;;;;;;;;5058067;28;20469;-81
2021/11/07 01:07:17;;;;;;;13.73;9.00;;;;;;;;;;5043005;28;20326;-83
2021/11/07 01:09:45;;;;;;;11.73;8.40;;;;;;;;;;5040855;28;20465;-82
2021/11/07 01:12:12;;;;;;;9.23;7.57;;;;;;;;;;5039878;28;20898;-83
2021/11/07 01:14:39;;;;;;;8.97;7.03;;;;;;;;;;5040146;28;20462;-82
2021/11/07 01:17:07;;;;;;;13.75;8.25;;;;;;;;;;5040719;28;20891;-82
2021/11/07 01:19:34;;;;;;;8.90;6.30;;;;;;;;;;5053793;28;20192;-80
2021/11/07 01:22:06;;;;;;;8.63;6.82;;;;;;;;;;5056446;28;20210;-80
2021/11/07 01:24:36;;;;;;;10.35;7.22;;;;;;;;;;5052110;28;20532;-82
2021/11/07 01:27:12;;;;;;;13.83;7.70;;;;;;;;;;5042284;28;20310;-83
2021/11/07 01:29:42;;;;;;;13.57;9.13;;;;;;;;;;5040999;28;20446;-82
2021/11/07 01:32:09;;;;;;;12.57;8.00;;;;;;;;;;5039808;28;21074;-83
2021/11/07 01:34:51;;;;;;;11.43;7.93;;;;;;;;;;5039383;28;20950;-83
2021/11/07 01:37:20;;;;;;;7.30;6.37;;;;;;;;;;5040918;28;20473;-83
2021/11/07 01:39:51;;;;;;;10.37;7.27;;;;;;;;;;5040870;28;20455;-83
2021/11/07 01:42:21;;;;;;;8.60;6.73;;;;;;;;;;5042054;28;20405;-82
2021/11/07 01:44:52;;;;;;;9.50;7.18;;;;;;;;;;5049029;28;20434;-82
2021/11/07 01:47:20;;;;;;;10.40;7.68;;;;;;;;;;5047618;28;20650;-83
2021/11/07 01:49:47;;;;;;;8.80;7.45;;;;;;;;;;5044250;28;20223;-83
2021/11/07 01:52:15;;;;;;;12.90;8.45;;;;;;;;;;5052693;28;20223;-82
2021/11/07 01:54:53;;;;;;;11.45;7.28;;;;;;;;;;5054599;28;20230;-82
2021/11/07 01:57:21;;;;;;;14.63;7.57;;;;;;;;;;5055444;28;20227;-82
2021/11/07 01:59:49;;;;;;;6.97;6.23;;;;;;;;;;5052228;28;20508;-82
2021/11/07 02:02:16;;;;;;;8.20;6.13;;;;;;;;;;5048703;28;20786;-83
2021/11/07 02:04:44;;;;;;;8.30;7.10;;;;;;;;;;5043768;28;20454;-83
2021/11/07 02:07:11;;;;;;;8.77;6.47;;;;;;;;;;5048736;28;20475;-82
2021/11/07 02:09:39;;;;;;;7.43;6.73;;;;;;;;;;5059731;28;20512;-82
2021/11/07 02:12:08;;;;;;;9.50;6.22;;;;;;;;;;5059844;28;20465;-82
2021/11/07 02:14:35;;;;;;;11.15;7.30;;;;;;;;;;5060102;28;20203;-82
2021/11/07 02:17:02;;;;;;;12.00;7.43;;;;;;;;;;5054110;28;20266;-82
2021/11/07 02:19:29;;;;;;;10.43;8.05;;;;;;;;;;5056972;28;20226;-81
2021/11/07 02:21:57;;;;;;;11.45;7.85;;;;;;;;;;5058347;28;20208;-82
2021/11/07 02:24:25;;;;;;;11.17;7.80;;;;;;;;;;5056113;28;20253;-83
2021/11/07 02:26:54;;;;;;;11.02;7.43;;;;;;;;;;5044358;28;20449;-83
2021/11/07 02:29:21;;;;;;;10.10;7.70;;;;;;;;;;5043091;28;20558;-81
2021/11/07 02:31:48;;;;;;;12.37;6.27;;;;;;;;;;5042197;28;20214;-82
2021/11/07 02:34:16;;;;;;;7.57;6.80;;;;;;;;;;5042794;28;20487;-83
2021/11/07 02:36:43;;;;;;;8.73;6.20;;;;;;;;;;5041842;28;20470;-83
2021/11/07 02:39:13;;;;;;;8.00;6.68;;;;;;;;;;5042569;28;20489;-83
2021/11/07 02:41:40;;;;;;;8.70;6.60;;;;;;;;;;5042184;28;20261;-83
2021/11/07 02:44:07;;;;;;;7.43;5.70;;;;;;;;;;5042047;28;20506;-83
2021/11/07 02:46:34;;;;;;;7.70;5.77;;;;;;;;;;5042544;28;20200;-83
2021/11/07 02:49:02;;;;;;;8.95;6.80;;;;;;;;;;5052107;28;20442;-80
2021/11/07 02:51:30;;;;;;;8.17;6.57;;;;;;;;;;5057395;28;20214;-81
2021/11/07 02:53:57;;;;;;;6.70;5.70;;;;;;;;;;5056727;28;20498;-80
2021/11/07 02:56:25;;;;;;;8.30;6.17;;;;;;;;;;5057665;28;20469;-81
2021/11/07 02:58:52;;;;;;;5.83;5.33;;;;;;;;;;5056845;28;20417;-80
2021/11/07 03:01:21;;;;;;;8.90;7.00;;;;;;;;;;5057569;28;20443;-80
2021/11/07 03:03:48;;;;;;;8.15;6.13;;;;;;;;;;5056970;28;20457;-82
2021/11/07 03:06:15;;;;;;;7.30;5.77;;;;;;;;;;5058950;28;20176;-82
2021/11/07 03:08:48;;;;;;;8.97;6.30;;;;;;;;;;5059762;28;20465;-81
2021/11/07 03:11:16;;;;;;;8.60;6.28;;;;;;;;;;5059992;28;20422;-81
2021/11/07 03:13:44;;;;;;;9.30;5.80;;;;;;;;;;5059238;28;20234;-81
2021/11/07 03:16:13;;;;;;;6.70;5.63;;;;;;;;;;5057104;28;20278;-82
2021/11/07 03:18:40;;;;;;;7.00;5.73;;;;;;;;;;5048857;28;20470;-82
2021/11/07 03:21:08;;;;;;;8.50;6.47;;;;;;;;;;5058025;28;20541;-82
2021/11/07 03:23:37;;;;;;;8.80;6.15;;;;;;;;;;5050389;28;20442;-82
2021/11/07 03:26:08;;;;;;;6.50;5.30;;;;;;;;;;5044882;28;20214;-83
2021/11/07 03:28:36;;;;;;;7.83;5.70;;;;;;;;;;5041495;28;20481;-81
2021/11/07 03:31:09;;;;;;;7.63;5.87;;;;;;;;;;5044752;28;20516;-82
2021/11/07 03:33:39;;;;;;;5.87;5.30;;;;;;;;;;5043886;28;21007;-81
2021/11/07 03:36:07;;;;;;;8.10;5.93;;;;;;;;;;5042672;28;20442;-80
2021/11/07 03:38:34;;;;;;;5.87;5.07;;;;;;;;;;5036605;28;20474;-79
2021/11/07 03:41:01;;;;;;;10.10;6.78;;;;;;;;;;5036473;28;20473;-80
2021/11/07 03:43:29;;;;;;;8.17;5.70;;;;;;;;;;5038043;28;20196;-79
2021/11/07 03:45:57;;;;;;;12.83;5.73;;;;;;;;;;5037309;28;20425;-81
2021/11/07 03:48:25;;;;;;;7.70;6.50;;;;;;;;;;5036668;28;20474;-81
2021/11/07 03:50:53;;;;;;;8.27;5.73;;;;;;;;;;5036779;28;20505;-80
2021/11/07 03:53:20;;;;;;;8.50;5.73;;;;;;;;;;5036841;28;20580;-81
2021/11/07 03:55:47;;;;;;;6.28;5.25;;;;;;;;;;5037178;28;20477;-81
2021/11/07 03:58:14;;;;;;;7.93;6.00;;;;;;;;;;5036808;28;20745;-81
2021/11/07 04:00:41;;;;;;;9.27;5.53;;;;;;;;;;5040212;28;20452;-81
2021/11/07 04:03:08;;;;;;;13.37;6.27;;;;;;;;;;5039826;28;20449;-81
2021/11/07 04:05:37;;;;;;;6.27;5.50;;;;;;;;;;5039154;28;20454;-81
2021/11/07 04:08:05;;;;;;;7.60;5.47;;;;;;;;;;5039034;28;20476;-81
2021/11/07 04:10:32;;;;;;;8.80;5.30;;;;;;;;;;5037287;28;20457;-81
2021/11/07 04:12:59;;;;;;;8.18;5.88;;;;;;;;;;5037733;28;20868;-80
2021/11/07 04:15:26;;;;;;;7.75;4.93;;;;;;;;;;5037154;28;20571;-81
2021/11/07 04:17:53;;;;;;;6.57;5.43;;;;;;;;;;5037131;28;20220;-80
2021/11/07 04:20:21;;;;;;;5.17;4.70;;;;;;;;;;5036871;28;20841;-81
2021/11/07 04:22:49;;;;;;;8.17;5.10;;;;;;;;;;5036804;28;20492;-81
2021/11/07 04:25:16;;;;;;;7.90;6.10;;;;;;;;;;5036758;28;20493;-81
2021/11/07 04:27:44;;;;;;;6.73;6.00;;;;;;;;;;5036749;28;20466;-81
2021/11/07 04:30:11;;;;;;;8.73;6.07;;;;;;;;;;5037898;28;20779;-81
2021/11/07 04:32:38;;;;;;;8.63;6.47;;;;;;;;;;5046219;28;20443;-79
2021/11/07 04:35:07;;;;;;;6.68;5.53;;;;;;;;;;5045156;28;20192;-79
2021/11/07 04:37:34;;;;;;;8.70;6.33;;;;;;;;;;5041780;28;20649;-80
2021/11/07 04:40:02;;;;;;;8.82;5.13;;;;;;;;;;5042515;28;20421;-81
2021/11/07 04:42:29;;;;;;;8.87;6.23;;;;;;;;;;5046342;28;20204;-79
2021/11/07 04:44:56;;;;;;;6.80;5.73;;;;;;;;;;5049788;28;20457;-80
2021/11/07 04:47:23;;;;;;;6.37;4.70;;;;;;;;;;5045328;28;20463;-81
2021/11/07 04:49:53;;;;;;;6.50;5.20;;;;;;;;;;5038171;28;20447;-79
2021/11/07 04:52:21;;;;;;;6.57;5.47;;;;;;;;;;5044539;28;20474;-81
2021/11/07 04:54:49;;;;;;;11.67;5.60;;;;;;;;;;5037757;28;20219;-80
2021/11/07 04:57:17;;;;;;;8.40;6.67;;;;;;;;;;5039546;28;20531;-81
2021/11/07 04:59:44;;;;;;;11.10;5.43;;;;;;;;;;5037074;28;20450;-81
2021/11/07 05:02:11;;;;;;;5.37;4.40;;;;;;;;;;5038916;28;20500;-81
2021/11/07 05:04:38;;;;;;;8.00;6.10;;;;;;;;;;5036299;28;20497;-81
2021/11/07 05:07:06;;;;;;;13.83;8.20;;;;;;;;;;5061706;22;20536;-82
2021/11/07 05:09:32;;;;;;;9.85;6.97;;;;;;;;;;5060947;28;20475;-82
2021/11/07 05:11:59;;;;;;;7.30;5.37;;;;;;;;;;5061519;28;20234;-80
2021/11/07 05:14:28;;;;;;;7.80;5.67;;;;;;;;;;5060962;28;20485;-81
2021/11/07 05:16:55;;;;;;;6.80;5.40;;;;;;;;;;5060794;28;20825;-81
2021/11/07 05:19:22;;;;;;;6.10;5.50;;;;;;;;;;5060871;28;20473;-81
2021/11/07 05:21:49;;;;;;;7.27;5.40;;;;;;;;;;5064455;28;20823;-79
2021/11/07 05:24:15;;;;;;;8.20;5.90;;;;;;;;;;5063549;28;20424;-81
2021/11/07 05:26:43;;;;;;;5.83;5.30;;;;;;;;;;5060983;28;20460;-80
2021/11/07 05:29:10;;;;;;;6.50;5.00;;;;;;;;;;5061004;28;20474;-82
2021/11/07 05:31:38;;;;;;;8.70;6.97;;;;;;;;;;5060499;28;20449;-81
2021/11/07 05:34:05;;;;;;;6.30;4.90;;;;;;;;;;5061038;28;20477;-82
2021/11/07 05:36:33;;;;;;;5.00;4.60;;;;;;;;;;5063589;28;20858;-82
2021/11/07 05:39:00;;;;;;;8.73;7.20;;;;;;;;;;5063497;28;20439;-83
2021/11/07 05:41:27;;;;;;;7.37;5.93;;;;;;;;;;5060850;28;20486;-83
2021/11/07 05:43:54;;;;;;;6.90;5.27;;;;;;;;;;5060696;28;20451;-83
2021/11/07 05:46:21;;;;;;;5.83;4.70;;;;;;;;;;5061445;28;20501;-82
2021/11/07 05:48:49;;;;;;;7.40;4.87;;;;;;;;;;5059917;28;20464;-80
2021/11/07 05:51:17;;;;;;;4.27;3.97;;;;;;;;;;5060804;28;20453;-81
2021/11/07 05:53:44;;;;;;;7.33;4.80;;;;;;;;;;5060551;28;20448;-80
2021/11/07 05:56:11;;;;;;;8.97;5.47;;;;;;;;;;5061001;28;20815;-80
2021/11/07 05:58:38;;;;;;;5.67;4.80;;;;;;;;;;5061637;28;20446;-80
2021/11/07 06:01:05;;;;;;;5.50;4.80;;;;;;;;;;5061297;28;20494;-82
2021/11/07 06:03:32;;;;;;;5.33;4.50;;;;;;;;;;5062861;28;20446;-82
2021/11/07 06:06:01;;;;;;;7.70;4.30;;;;;;;;;;5060268;28;20483;-81
2021/11/07 06:08:28;;;;;;;7.17;4.80;;;;;;;;;;5060691;28;20476;-82
2021/11/07 06:10:55;;;;;;;4.90;4.37;;;;;;;;;;5060220;28;20449;-82
2021/11/07 06:13:22;;;;;;;5.40;4.17;;;;;;;;;;5057253;28;20466;-81
2021/11/07 06:15:49;;;;;;;5.50;4.80;;;;;;;;;;5057063;28;20461;-81
2021/11/07 06:18:16;;;;;;;11.57;7.73;;;;;;;;;;5057009;28;20528;-81
2021/11/07 06:20:43;;;;;;;7.53;5.63;;;;;;;;;;5056772;28;20477;-81
2021/11/07 06:23:12;;;;;;;4.87;4.20;;;;;;;;;;5056839;28;20441;-81
2021/11/07 06:25:39;;;;;;;5.73;4.50;;;;;;;;;;5057253;28;20445;-81
2021/11/07 06:28:07;;;;;;;5.87;4.23;;;;;;;;;;5059029;28;20462;-81
2021/11/07 06:30:34;;;;;;;6.93;4.83;;;;;;;;;;5063732;28;20441;-79
2021/11/07 06:33:01;;;;;;;4.00;3.60;;;;;;;;;;5066754;28;20476;-81
2021/11/07 06:35:28;;;;;;;5.47;4.27;;;;;;;;;;5062880;28;20500;-80
2021/11/07 06:37:56;;;;;;;6.50;4.63;;;;;;;;;;5060576;28;20500;-80
2021/11/07 06:40:24;;;;;;;6.47;4.20;;;;;;;;;;5063284;28;20479;-81
2021/11/07 06:42:51;;;;;;;9.00;5.07;;;;;;;;;;5062005;28;20476;-82
2021/11/07 06:45:18;;;;;;;7.13;4.70;;;;;;;;;;5061466;28;20477;-82
2021/11/07 06:47:45;;;;;;;5.33;4.83;;;;;;;;;;5061238;28;20501;-82
2021/11/07 06:50:12;;;;;;;8.87;5.30;;;;;;;;;;5065940;28;20439;-80
2021/11/07 06:52:39;;;;;;;6.27;5.67;;;;;;;;;;5079292;28;20448;-79
2021/11/07 06:55:07;;;;;;;6.77;4.80;;;;;;;;;;5066133;28;20907;-82
2021/11/07 06:57:35;;;;;;;8.33;6.33;;;;;;;;;;5061055;28;20439;-82
2021/11/07 07:00:03;;;;;;;10.10;6.30;;;;;;;;;;5061118;28;20427;-82
2021/11/07 07:02:33;;;;;;;6.50;4.93;;;;;;;;;;5061561;28;20878;-82
2021/11/07 07:05:02;;;;;;;9.18;6.35;;;;;;;;;;5061816;28;20814;-81
2021/11/07 07:07:33;;;;;;;6.47;4.73;;;;;;;;;;5061268;28;20238;-81
2021/11/07 07:10:02;;;;;;;5.80;5.03;;;;;;;;;;5061654;28;20843;-82
2021/11/07 07:12:34;;;;;;;7.97;5.20;;;;;;;;;;5065263;28;20453;-82
2021/11/07 07:15:06;;;;;;;10.32;6.53;;;;;;;;;;5061582;28;20473;-82
2021/11/07 07:17:40;;;;;;;6.73;5.40;;;;;;;;;;5060691;28;20262;-82
2021/11/07 07:20:24;;;;;;;9.40;5.73;;;;;;;;;;5060154;28;20458;-82
2021/11/07 07:26:09;;;;;;;8.70;5.72;;;;;;;;;;5058928;28;20404;-80
2021/11/07 07:28:43;;;;;;;7.50;5.87;;;;;;;;;;5062744;28;20310;-81
2021/11/07 07:31:26;;;;;;;8.50;5.90;;;;;;;;;;5063895;28;20440;-80
2021/11/07 07:33:59;;;;;;;6.97;5.17;;;;;;;;;;5063362;28;20473;-81
2021/11/07 07:36:26;;;;;;;6.67;5.10;;;;;;;;;;5063410;28;20460;-81
2021/11/07 07:38:53;;;;;;;9.10;5.97;;;;;;;;;;5061620;28;20487;-80
2021/11/07 07:41:20;;;;;;;6.30;4.70;;;;;;;;;;5058921;28;20449;-80
2021/11/07 07:43:47;;;;;;;5.57;5.07;;;;;;;;;;5059701;28;20932;-82
2021/11/07 07:46:16;;;;;;;6.30;5.30;;;;;;;;;;5059851;28;20424;-80
2021/11/07 07:48:44;;;;;;;7.70;5.87;;;;;;;;;;5059532;28;20444;-81
2021/11/07 07:51:12;;;;;;;5.83;4.97;;;;;;;;;;5063137;28;20467;-79
2021/11/07 07:53:40;;;;;;;6.77;5.40;;;;;;;;;;5072842;28;20424;-81
2021/11/07 07:56:07;;;;;;;6.63;5.47;;;;;;;;;;5075014;28;20431;-81
2021/11/07 07:58:35;;;;;;;7.80;5.63;;;;;;;;;;5072867;28;20451;-80
2021/11/07 08:01:02;;;;;;;9.70;7.97;;;;;;;;;;5071987;28;20468;-80
2021/11/07 08:03:31;;;;;;;6.00;5.47;;;;;;;;;;5066384;28;20455;-81
2021/11/07 08:05:58;;;;;;;9.40;5.43;;;;;;;;;;5071444;28;20408;-80
2021/11/07 08:08:25;;;;;;;6.20;5.40;;;;;;;;;;5070354;28;20452;-81
2021/11/07 08:10:52;;;;;;;7.37;5.53;;;;;;;;;;5062926;28;20449;-82
2021/11/07 08:13:19;;;;;;;9.70;5.13;;;;;;;;;;5064755;28;20454;-79
2021/11/07 08:15:46;;;;;;;8.53;5.77;;;;;;;;;;5061465;28;20506;-82
2021/11/07 08:18:13;;;;;;;6.27;5.63;;;;;;;;;;5060544;28;20469;-80
2021/11/07 08:20:44;;;;;;;6.80;5.40;;;;;;;;;;5061288;28;20462;-81
2021/11/07 08:23:11;;;;;;;6.27;5.60;;;;;;;;;;5061435;28;20282;-81
2021/11/07 08:25:39;;;;;;;6.67;5.50;;;;;;;;;;5059386;28;20425;-83
2021/11/07 08:28:07;;;;;;;6.07;5.00;;;;;;;;;;5059347;28;20978;-83
2021/11/07 08:30:38;;;;;;;7.20;5.97;;;;;;;;;;5059350;28;20458;-82
2021/11/07 08:33:06;;;;;;;7.27;5.13;;;;;;;;;;5064404;28;20203;-82
2021/11/07 08:35:33;;;;;;;7.90;5.37;;;;;;;;;;5064512;28;20477;-80
2021/11/07 08:38:05;;;;;;;7.13;5.87;;;;;;;;;;5061566;28;20492;-82
2021/11/07 08:40:36;;;;;;;8.10;5.80;;;;;;;;;;5062334;28;20437;-82
2021/11/07 08:43:08;;;;;;;7.07;5.47;;;;;;;;;;5064524;28;20556;-83
2021/11/07 09:02:16;;;;;;;6.60;5.53;;;;;;;;;;5062426;28;20372;-83
2021/11/07 09:04:57;;;;;;;8.18;5.70;;;;;;;;;;5061855;28;20418;-81
2021/11/07 09:07:26;;;;;;;5.53;5.03;;;;;;;;;;5062328;28;20465;-83
2021/11/07 09:09:59;;;;;;;5.93;4.10;;;;;;;;;;5059859;28;20438;-83
2021/11/07 09:12:26;;;;;;;5.93;4.63;;;;;;;;;;5062690;28;20422;-80
2021/11/07 09:14:53;;;;;;;5.73;4.47;;;;;;;;;;5063691;28;20463;-79
2021/11/07 09:17:21;;;;;;;4.77;4.33;;;;;;;;;;5070409;28;20859;-78
2021/11/07 09:19:50;;;;;;;4.83;4.00;;;;;;;;;;5066987;28;20445;-80
2021/11/07 09:22:22;;;;;;;5.80;4.20;;;;;;;;;;5070959;28;20441;-80
2021/11/07 09:24:52;;;;;;;3.40;3.10;;;;;;;;;;5076868;28;20400;-80
2021/11/07 09:27:23;;;;;;;5.10;3.30;;;;;;;;;;5073541;28;20516;-80
2021/11/07 09:29:58;;;;;;;3.70;3.33;;;;;;;;;;5077694;28;20449;-80
2021/11/07 09:32:40;;;;;;;3.30;2.87;;;;;;;;;;5078340;28;20539;-80
2021/11/07 09:38:04;;;;;;;4.30;3.23;;;;;;;;;;5052299;28;20484;-82
2021/11/07 09:40:33;;;;;;;5.23;4.00;;;;;;;;;;5072715;28;20433;-80
2021/11/07 09:43:36;;;;;;;4.30;3.10;;;;;;;;;;5069917;28;20416;-80
2021/11/07 09:46:14;;;;;;;5.13;3.53;;;;;;;;;;5070482;28;20437;-82
2021/11/07 09:48:44;;;;;;;7.57;4.20;;;;;;;;;;5065959;28;20473;-80
2021/11/07 09:51:17;;;;;;;3.90;3.10;;;;;;;;;;5061878;28;20449;-81
2021/11/07 09:53:45;;;;;;;3.83;3.53;;;;;;;;;;5059069;28;20451;-83
2021/11/07 09:56:13;;;;;;;4.40;3.20;;;;;;;;;;5059167;28;20452;-80
2021/11/07 09:58:43;;;;;;;6.10;3.20;;;;;;;;;;5060814;28;20444;-80
2021/11/07 10:01:10;;;;;;;3.50;3.17;;;;;;;;;;5060529;28;20516;-81
2021/11/07 10:03:40;;;;;;;6.17;3.37;;;;;;;;;;5060471;28;20907;-83
2021/11/07 10:06:23;;;;;;;3.43;3.00;;;;;;;;;;5065116;28;20452;-83
2021/11/07 10:08:51;;;;;;;4.20;3.20;;;;;;;;;;5063569;28;20477;-82
2021/11/07 10:11:18;;;;;;;11.40;4.90;;;;;;;;;;5063734;28;20523;-83
2021/11/07 10:13:59;;;;;;;4.00;3.50;;;;;;;;;;5062487;28;20429;-82
2021/11/07 10:16:35;;;;;;;3.13;2.83;;;;;;;;;;5062657;28;20465;-83
2021/11/07 10:19:13;;;;;;;5.90;3.70;;;;;;;;;;5062350;28;20474;-80
2021/11/07 10:21:46;;;;;;;7.40;2.97;;;;;;;;;;5061856;28;20886;-80
2021/11/07 10:24:16;;;;;;;4.17;2.90;;;;;;;;;;5062502;28;20453;-81
2021/11/07 10:26:45;;;;;;;3.73;2.03;;;;;;;;;;5067269;28;20529;-82
2021/11/07 10:29:23;;;;;;;3.77;2.80;;;;;;;;;;5062167;28;20561;-83
2021/11/07 10:31:57;;;;;;;3.23;2.80;;;;;;;;;;5062676;28;20456;-83
2021/11/07 10:34:39;;;;;;;4.50;2.77;;;;;;;;;;5062403;28;20767;-80
2021/11/07 10:40:18;;;;;;;2.67;1.93;;;;;;;;;;5049232;28;20493;-79
2021/11/07 10:43:11;;;;;;;4.77;3.10;;;;;;;;;;5072817;28;20452;-79
2021/11/07 10:46:13;;;;;;;2.87;1.70;;;;;;;;;;5066723;28;20493;-81
2021/11/07 10:54:24;;;;;;;6.30;5.50;;;;;;;;;;5071753;28;20490;-79
2021/11/07 10:57:06;;;;;;;6.67;3.40;;;;;;;;;;5063476;28;20436;-81
2021/11/07 10:59:33;;;;;;;3.83;2.60;;;;;;;;;;5061089;28;20416;-81
2021/11/07 11:02:01;;;;;;;3.80;3.03;;;;;;;;;;5060913;28;20448;-82
2021/11/07 11:04:28;;;;;;;4.60;2.93;;;;;;;;;;5060602;28;20794;-81
2021/11/07 11:06:55;;;;;;;5.93;3.43;;;;;;;;;;5060155;28;20496;-81
2021/11/07 11:09:22;;;;;;;4.00;3.27;;;;;;;;;;5064450;22;20501;-79
2021/11/07 11:11:54;;;;;;;6.83;4.70;;;;;;;;;;5040197;28;20442;-80
2021/11/07 11:14:24;;;;;;;7.43;5.23;;;;;;;;;;5040558;28;20820;-80
2021/11/07 11:16:55;;;;;;;8.50;4.87;;;;;;;;;;5040663;28;20476;-78
2021/11/07 11:19:45;;;;;;;6.13;4.43;;;;;;;;;;5040543;28;20909;-80
2021/11/07 11:22:25;;;;;;;7.10;4.90;;;;;;;;;;5039176;28;20956;-80
2021/11/07 11:25:12;;;;;;;7.30;4.40;;;;;;;;;;5038892;28;20458;-80
2021/11/07 11:28:02;;;;;;;20.13;7.77;;;;;;;;;;5040108;28;20452;-79
2021/11/07 11:33:17;;;;;;;5.40;2.97;;;;;;;;;;5048187;28;20434;-79
2021/11/07 11:35:53;;;;;;;3.50;2.70;;;;;;;;;;5038654;28;21035;-79
2021/11/07 11:38:24;;;;;;;3.90;2.17;;;;;;;;;;5039312;28;20515;-79
2021/11/07 11:41:03;;;;;;;6.87;2.10;;;;;;;;;;5039610;28;20412;-79
2021/11/07 11:43:34;;;;;;;2.72;1.60;;;;;;;;;;5038842;28;20422;-79
2021/11/07 11:46:08;;;;;;;3.53;1.33;;;;;;;;;;5045361;28;20184;-77
2021/11/07 11:48:59;;;;;;;2.67;2.33;;;;;;;;;;5046641;28;20257;-78
2021/11/07 11:51:38;;;;;;;6.47;2.08;;;;;;;;;;5048574;28;20203;-79
2021/11/07 11:54:15;;;;;;;2.10;1.40;;;;;;;;;;5048149;28;20196;-78
2021/11/07 11:57:02;;;;;;;3.10;2.03;;;;;;;;;;5047975;28;20466;-79
2021/11/07 11:59:34;;;;;;;4.05;2.20;;;;;;;;;;5047604;28;20231;-78
2021/11/07 12:02:15;;;;;;;3.38;1.95;;;;;;;;;;5046499;28;20203;-77
2021/11/07 12:05:06;;;;;;;1.42;1.20;;;;;;;;;;5045736;28;20211;-79
2021/11/07 12:07:38;;;;;;;2.50;1.90;;;;;;;;;;5046137;28;20254;-79
2021/11/07 12:10:26;;;;;;;1.80;1.70;;;;;;;;;;5047365;28;20219;-79
2021/11/07 12:12:56;;;;;;;3.30;2.58;;;;;;;;;;5042799;28;20509;-79
2021/11/07 12:15:29;;;;;;;5.10;2.15;;;;;;;;;;5041723;28;20210;-80
2021/11/07 12:18:04;;;;;;;4.28;2.20;;;;;;;;;;5041741;28;20227;-79
2021/11/07 12:20:32;;;;;;;3.63;2.50;;;;;;;;;;5045640;28;20187;-79
2021/11/07 12:23:21;;;;;;;4.65;3.10;;;;;;;;;;5048109;28;20444;-78
2021/11/07 12:25:50;;;;;;;5.03;3.20;;;;;;;;;;5047142;28;20188;-78
2021/11/07 12:28:18;;;;;;;6.20;4.93;;;;;;;;;;5047587;28;20481;-77
2021/11/07 12:30:45;;;;;;;7.30;3.83;;;;;;;;;;5044174;28;20461;-79
2021/11/07 12:33:15;;;;;;;8.10;4.77;;;;;;;;;;5042700;28;20438;-79
2021/11/07 12:35:47;;;;;;;4.40;4.00;;;;;;;;;;5041520;28;20480;-79
2021/11/07 12:41:16;;;;;;;10.70;4.93;;;;;;;;;;5039340;28;20857;-80
2021/11/07 12:43:44;;;;;;;5.20;4.37;;;;;;;;;;5039729;28;20947;-80
2021/11/07 12:46:17;;;;;;;7.87;3.73;;;;;;;;;;5040557;28;20533;-79
2021/11/07 12:48:45;;;;;;;4.47;4.07;;;;;;;;;;5040577;28;20553;-80
2021/11/07 12:51:14;;;;;;;5.87;4.27;;;;;;;;;;5041400;28;20436;-79
2021/11/07 12:54:02;;;;;;;8.93;4.63;;;;;;;;;;5043007;28;20446;-80
2021/11/07 12:56:51;;;;;;;6.60;4.70;;;;;;;;;;5043270;28;20490;-81
2021/11/07 12:59:22;;;;;;;5.40;3.17;;;;;;;;;;5038673;28;20471;-81
2021/11/07 13:01:55;;;;;;;5.67;4.20;;;;;;;;;;5045160;28;20512;-82
2021/11/07 13:04:23;;;;;;;4.70;3.40;;;;;;;;;;5042730;28;20484;-81
2021/11/07 13:06:54;;;;;;;7.83;3.87;;;;;;;;;;5044170;28;20435;-80
2021/11/07 13:09:24;;;;;;;4.10;2.93;;;;;;;;;;5048922;28;20910;-81
2021/11/07 13:11:56;;;;;;;7.33;2.90;;;;;;;;;;5049211;28;20861;-79
2021/11/07 13:14:36;;;;;;;3.80;2.80;;;;;;;;;;5047725;28;20460;-80
2021/11/07 13:17:19;;;;;;;7.40;2.63;;;;;;;;;;5043962;28;20466;-80
2021/11/07 13:19:57;;;;;;;8.23;3.40;;;;;;;;;;5047576;28;20431;-81
2021/11/07 13:23:02;;;;;;;4.53;2.47;;;;;;;;;;5049508;28;20434;-81
2021/11/07 13:25:43;;;;;;;7.17;3.13;;;;;;;;;;5049946;28;20442;-82
2021/11/07 13:28:18;;;;;;;8.37;3.37;;;;;;;;;;5048749;28;20528;-81
2021/11/07 13:31:04;;;;;;;6.63;3.13;;;;;;;;;;5043701;28;20503;-81
2021/11/07 13:33:32;;;;;;;5.97;2.93;;;;;;;;;;5041685;28;20507;-82
2021/11/07 13:36:00;;;;;;;6.53;2.70;;;;;;;;;;5041145;28;20462;-80
2021/11/07 13:38:31;;;;;;;4.63;2.70;;;;;;;;;;5040484;28;20473;-81
2021/11/07 13:40:58;;;;;;;6.50;3.53;;;;;;;;;;5041507;28;20434;-80
2021/11/07 13:43:28;;;;;;;7.80;3.10;;;;;;;;;;5041083;28;20446;-82
2021/11/07 13:45:56;;;;;;;7.73;3.43;;;;;;;;;;5042444;28;20462;-82
2021/11/07 13:48:29;;;;;;;5.43;3.20;;;;;;;;;;5041952;28;20547;-81
2021/11/07 13:50:57;;;;;;;7.50;2.93;;;;;;;;;;5042248;28;20434;-80
2021/11/07 13:53:26;;;;;;;13.80;3.27;;;;;;;;;;5041043;28;20424;-81
2021/11/07 13:55:53;;;;;;;8.50;3.33;;;;;;;;;;5045078;28;20497;-79
2021/11/07 13:58:22;;;;;;;13.33;3.60;;;;;;;;;;5044020;28;20893;-81
2021/11/07 14:00:51;;;;;;;6.43;2.72;;;;;;;;;;5042146;28;20424;-80
2021/11/07 14:03:19;;;;;;;11.88;3.65;;;;;;;;;;5042974;28;20471;-81
2021/11/07 14:05:52;;;;;;;4.83;2.50;;;;;;;;;;5044289;28;20270;-80
2021/11/07 14:08:19;;;;;;;10.97;3.00;;;;;;;;;;5044111;28;20490;-82
2021/11/07 14:10:46;;;;;;;6.13;2.93;;;;;;;;;;5043392;28;20458;-81
2021/11/07 14:13:14;;;;;;;4.70;2.17;;;;;;;;;;5042105;28;20444;-81
2021/11/07 14:15:44;;;;;;;7.90;2.53;;;;;;;;;;5044257;28;20540;-81
2021/11/07 14:18:14;;;;;;;5.67;3.30;;;;;;;;;;5047505;28;20533;-83
2021/11/07 14:20:47;;;;;;;9.03;3.40;;;;;;;;;;5048251;28;20474;-81
2021/11/07 14:23:20;;;;;;;5.73;2.90;;;;;;;;;;5049403;28;20896;-80
2021/11/07 14:25:48;;;;;;;9.40;5.33;;;;;;;;;;5047716;28;20782;-80
2021/11/07 14:28:22;;;;;;;5.78;3.15;;;;;;;;;;5046727;28;20477;-81
2021/11/07 14:30:50;;;;;;;4.97;2.30;;;;;;;;;;5048188;28;20219;-79
2021/11/07 14:33:24;;;;;;;11.23;4.45;;;;;;;;;;5051518;28;20438;-78
2021/11/07 14:35:54;;;;;;;10.40;3.00;;;;;;;;;;5053158;28;20211;-78
2021/11/07 14:38:27;;;;;;;4.93;2.80;;;;;;;;;;5054333;28;20459;-80
2021/11/07 14:41:01;;;;;;;7.60;3.10;;;;;;;;;;5052691;28;20263;-78
2021/11/07 14:43:39;;;;;;;6.03;2.92;;;;;;;;;;5049061;28;20430;-79
2021/11/07 14:46:25;;;;;;;6.78;3.60;;;;;;;;;;5043114;28;20184;-80
2021/11/07 14:49:00;;;;;;;10.77;2.83;;;;;;;;;;5045292;28;20220;-83
2021/11/07 14:51:49;;;;;;;5.70;2.60;;;;;;;;;;5047411;28;20426;-80
2021/11/07 14:54:27;;;;;;;4.80;2.80;;;;;;;;;;5051377;28;20533;-79
2021/11/07 14:57:10;;;;;;;4.33;2.80;;;;;;;;;;5053360;28;20466;-80
2021/11/07 14:59:42;;;;;;;7.00;3.00;;;;;;;;;;5049343;28;20476;-82
2021/11/07 15:02:22;;;;;;;4.50;3.07;;;;;;;;;;5051128;28;20256;-79
2021/11/07 15:04:52;;;;;;;4.87;2.57;;;;;;;;;;5052342;28;20767;-79
2021/11/07 15:07:28;;;;;;;6.37;3.27;;;;;;;;;;5051847;28;20438;-82
2021/11/07 15:10:19;;;;;;;3.90;2.63;;;;;;;;;;5049410;28;20430;-80
2021/11/07 15:12:54;;;;;;;8.33;2.97;;;;;;;;;;5046626;28;20431;-80
2021/11/07 15:15:36;;;;;;;5.70;3.30;;;;;;;;;;5045418;28;20458;-81
2021/11/07 15:18:26;;;;;;;7.40;2.80;;;;;;;;;;5045387;28;20488;-80
2021/11/07 15:20:59;;;;;;;4.17;2.27;;;;;;;;;;5045046;28;20246;-81
2021/11/07 15:23:28;;;;;;;8.13;2.37;;;;;;;;;;5042047;28;20502;-81
2021/11/07 15:25:56;;;;;;;12.40;3.00;;;;;;;;;;5042285;28;20482;-81
2021/11/07 15:28:27;;;;;;;7.70;2.40;;;;;;;;;;5043071;28;20501;-81
2021/11/07 15:30:54;;;;;;;10.20;2.57;;;;;;;;;;5042625;28;20417;-81
2021/11/07 15:33:21;;;;;;;6.03;2.50;;;;;;;;;;5044321;28;20482;-80
2021/11/07 15:35:49;;;;;;;6.80;2.80;;;;;;;;;;5045479;28;20461;-81
2021/11/07 15:38:17;;;;;;;4.80;3.00;;;;;;;;;;5043401;28;20550;-81
2021/11/07 15:40:44;;;;;;;5.13;2.60;;;;;;;;;;5040934;28;20215;-79
2021/11/07 15:43:17;;;;;;;6.50;2.93;;;;;;;;;;5043918;28;20269;-80